Time;durP1;ratioP1;P1;durP2;ratioP2;P2;SDS_P1;SDS_P2;PMS_P1;PMS_P2;Temp;Humidity;BMP_temperature;BMP_pressure;BME280_temperature;BME280_humidity;BME280_pressure;Samples;Min_cycle;Max_cycle;Signal;HPM_P1;HPM_P2
2022/03/10 00:00:46;;;;;;;19.52;12.48;;;;;;;-0.75;50.76;100808.75;10266694;28;20145;-74
2022/03/10 00:05:48;;;;;;;21.10;12.73;;;;;;;-0.88;51.01;100812.19;10265296;28;20146;-73
2022/03/10 00:10:50;;;;;;;21.27;13.18;;;;;;;-0.92;51.16;100805.34;10264563;28;20157;-74
2022/03/10 00:15:51;;;;;;;21.00;13.77;;;;;;;-0.93;51.09;100807.03;10264159;28;20046;-74
2022/03/10 00:20:53;;;;;;;23.20;14.07;;;;;;;-0.94;51.33;100807.88;10261262;28;20591;-74
2022/03/10 00:25:55;;;;;;;26.83;14.18;;;;;;;-0.87;51.00;100804.47;10263444;28;20134;-74
2022/03/10 00:30:57;;;;;;;19.15;12.50;;;;;;;-0.95;51.36;100808.75;10265302;28;20112;-74
2022/03/10 00:35:58;;;;;;;18.83;11.98;;;;;;;-0.94;51.38;100813.00;10260382;28;20051;-74
2022/03/10 00:41:00;;;;;;;18.45;12.30;;;;;;;-0.96;51.32;100814.72;10267532;28;20078;-83
2022/03/10 00:46:02;;;;;;;19.80;12.73;;;;;;;-1.10;51.41;100811.28;10272079;28;20752;-83
2022/03/10 00:51:05;;;;;;;18.05;12.38;;;;;;;-1.17;51.68;100812.16;10273085;28;20082;-83
2022/03/10 00:56:06;;;;;;;21.73;13.63;;;;;;;-1.18;51.81;100813.84;10271868;28;20059;-83
2022/03/10 01:01:10;;;;;;;35.72;18.48;;;;;;;-1.17;51.68;100814.72;10272040;28;20134;-83
2022/03/10 01:06:12;;;;;;;30.42;17.10;;;;;;;-1.18;51.63;100818.97;10270914;28;21153;-83
2022/03/10 01:11:14;;;;;;;24.77;14.43;;;;;;;-1.15;51.72;100831.81;10270959;28;20141;-83
2022/03/10 01:16:16;;;;;;;22.58;14.50;;;;;;;-1.17;51.90;100835.25;10272522;28;20053;-83
2022/03/10 01:21:17;;;;;;;22.55;13.65;;;;;;;-1.25;52.04;100826.69;10271740;28;21009;-83
2022/03/10 01:26:19;;;;;;;18.90;12.60;;;;;;;-1.38;52.17;100835.19;10265527;28;20057;-83
2022/03/10 01:31:21;;;;;;;20.95;13.13;;;;;;;-1.36;52.67;100838.59;10271749;28;20161;-83
2022/03/10 01:36:23;;;;;;;17.50;11.90;;;;;;;-1.35;52.78;100838.59;10264627;28;20126;-83
2022/03/10 01:41:24;;;;;;;21.98;12.82;;;;;;;-1.34;52.91;100842.03;10269571;28;20499;-83
2022/03/10 01:46:27;;;;;;;19.05;12.98;;;;;;;-1.37;52.83;100840.31;10267858;28;20576;-83
2022/03/10 01:51:29;;;;;;;19.50;12.82;;;;;;;-1.44;52.96;100837.72;10271884;28;20051;-83
2022/03/10 01:56:32;;;;;;;23.60;12.63;;;;;;;-1.48;53.20;100844.56;10270266;28;20053;-84
2022/03/10 02:01:35;;;;;;;20.02;13.57;;;;;;;-1.49;53.10;100842.84;10270041;28;20054;-83
2022/03/10 02:06:37;;;;;;;17.77;12.80;;;;;;;-1.56;53.12;100850.50;10264483;28;20413;-83
2022/03/10 02:11:39;;;;;;;21.40;13.30;;;;;;;-1.65;53.40;100840.22;10279103;28;20134;-83
2022/03/10 02:22:10;;;;;;;18.63;13.07;;;;;;;-1.83;54.47;100835.00;10278684;28;20146;-83
2022/03/10 02:27:19;;;;;;;21.05;13.27;;;;;;;-1.84;54.57;100833.31;10277876;28;20667;-82
2022/03/10 02:32:22;;;;;;;24.60;14.05;;;;;;;-1.89;54.06;100834.97;10291826;28;20047;-82
2022/03/10 02:37:23;;;;;;;21.30;12.98;;;;;;;-1.88;54.22;100831.56;10277671;28;20134;-82
2022/03/10 02:42:25;;;;;;;21.60;14.23;;;;;;;-1.91;54.12;100840.09;10278178;28;20141;-83
2022/03/10 02:47:27;;;;;;;21.48;13.73;;;;;;;-1.91;54.05;100841.81;10275415;28;20130;-83
2022/03/10 02:52:29;;;;;;;20.70;13.52;;;;;;;-2.01;54.06;100836.66;10276592;28;21314;-82
2022/03/10 02:57:31;;;;;;;21.77;13.40;;;;;;;-2.30;54.67;100838.16;10277598;28;20408;-82
2022/03/10 03:02:33;;;;;;;20.40;13.27;;;;;;;-2.26;54.71;100839.91;10278027;28;20046;-83
2022/03/10 03:07:35;;;;;;;24.20;13.77;;;;;;;-2.28;54.60;100836.47;10282878;28;20046;-83
2022/03/10 03:12:48;;;;;;;21.60;14.63;;;;;;;-2.35;55.48;100836.44;10282735;28;20178;-82
2022/03/10 03:17:53;;;;;;;20.13;14.05;;;;;;;-2.38;55.11;100844.94;10276456;28;20078;-82
2022/03/10 03:22:55;;;;;;;19.17;13.52;;;;;;;-2.40;54.76;100844.06;10294790;28;20090;-83
2022/03/10 03:27:57;;;;;;;22.25;13.80;;;;;;;-2.49;54.95;100849.13;10280733;28;20054;-81
2022/03/10 03:32:58;;;;;;;23.88;14.90;;;;;;;-2.52;55.21;100850.81;10282879;28;20166;-81
2022/03/10 03:38:00;;;;;;;23.95;14.38;;;;;;;-2.46;54.83;100845.72;10281174;28;20141;-81
2022/03/10 03:43:02;;;;;;;20.58;14.25;;;;;;;-2.42;54.84;100845.78;10297056;28;20194;-81
2022/03/10 03:48:04;;;;;;;20.98;13.63;;;;;;;-2.42;54.71;100843.22;10281102;28;20141;-80
2022/03/10 03:53:06;;;;;;;22.52;13.80;;;;;;;-2.50;54.99;100849.97;10278339;28;20082;-80
2022/03/10 03:58:07;;;;;;;21.08;13.68;;;;;;;-2.45;55.03;100852.59;10296446;28;20555;-80
2022/03/10 04:03:10;;;;;;;21.55;13.68;;;;;;;-2.51;55.25;100857.66;10279206;28;20158;-80
2022/03/10 04:08:12;;;;;;;24.55;14.90;;;;;;;-2.55;55.34;100855.91;10276630;28;20074;-80
2022/03/10 04:13:14;;;;;;;22.98;14.95;;;;;;;-2.57;55.50;100857.63;10274059;28;20130;-80
2022/03/10 04:18:17;;;;;;;22.73;13.88;;;;;;;-2.62;55.41;100855.00;10275812;28;20141;-81
2022/03/10 04:23:19;;;;;;;20.38;13.15;;;;;;;-2.63;55.38;100853.28;10274582;28;20141;-80
2022/03/10 04:28:22;;;;;;;20.80;13.60;;;;;;;-2.68;55.36;100852.41;10289085;28;20059;-81
2022/03/10 04:33:23;;;;;;;22.42;14.52;;;;;;;-2.71;55.63;100854.91;10273270;28;20133;-80
2022/03/10 04:38:25;;;;;;;23.42;15.18;;;;;;;-2.86;55.72;100852.25;10274594;28;20165;-81
2022/03/10 04:43:27;;;;;;;23.15;15.05;;;;;;;-2.86;55.97;100862.50;10272963;28;20133;-80
2022/03/10 04:48:29;;;;;;;23.92;14.90;;;;;;;-2.86;56.00;100849.69;10273147;28;20591;-80
2022/03/10 04:53:31;;;;;;;21.33;14.20;;;;;;;-2.86;56.36;100852.25;10271967;28;20043;-81
2022/03/10 04:58:33;;;;;;;23.33;14.68;;;;;;;-2.90;56.33;100864.13;10273968;28;20142;-80
2022/03/10 05:03:35;;;;;;;23.98;14.90;;;;;;;-2.94;56.26;100862.41;10272908;28;20505;-81
2022/03/10 05:08:37;;;;;;;22.63;15.75;;;;;;;-3.08;56.55;100873.38;10273895;28;20142;-81
2022/03/10 05:13:38;;;;;;;22.17;15.13;;;;;;;-3.22;56.63;100877.47;10272648;28;20137;-80
2022/03/10 05:18:41;;;;;;;24.15;15.35;;;;;;;-3.26;56.85;100883.41;10272148;28;20508;-81
2022/03/10 05:23:42;;;;;;;24.70;15.70;;;;;;;-3.25;56.90;100887.66;10271622;28;20137;-81
2022/03/10 05:28:44;;;;;;;22.17;14.48;;;;;;;-3.18;56.93;100884.34;10272494;28;20138;-81
2022/03/10 05:33:46;;;;;;;26.08;15.82;;;;;;;-3.21;56.75;100890.28;10272431;28;20133;-81
2022/03/10 05:38:48;;;;;;;26.73;15.15;;;;;;;-3.25;57.11;100888.53;10269288;28;20242;-80
2022/03/10 05:43:55;;;;;;;26.08;15.90;;;;;;;-3.23;56.85;100891.09;10278204;28;20059;-80
2022/03/10 05:48:57;;;;;;;24.15;15.80;;;;;;;-3.20;56.72;100888.59;10281124;28;20154;-80
2022/03/10 05:53:58;;;;;;;29.02;17.38;;;;;;;-3.23;56.94;100891.09;10280682;28;20097;-81
2022/03/10 05:59:00;;;;;;;22.55;15.82;;;;;;;-3.20;57.26;100894.53;10279437;28;20160;-81
2022/03/10 06:04:02;;;;;;;22.10;14.95;;;;;;;-3.15;56.92;100910.81;10280420;28;20090;-80
2022/03/10 06:09:10;;;;;;;24.52;15.88;;;;;;;-3.09;57.09;100918.56;10279317;28;20055;-81
2022/03/10 06:14:12;;;;;;;25.95;16.50;;;;;;;-3.13;57.03;100919.34;10279185;28;20133;-81
2022/03/10 06:19:15;;;;;;;25.15;15.75;;;;;;;-3.06;56.98;100928.81;10279085;28;20085;-80
2022/03/10 06:24:17;;;;;;;24.02;15.68;;;;;;;-3.04;56.85;100931.41;10279547;28;20090;-81
2022/03/10 06:29:19;;;;;;;25.98;15.23;;;;;;;-2.93;56.85;100940.03;10277815;28;20081;-81
2022/03/10 06:34:20;;;;;;;25.05;15.50;;;;;;;-2.81;56.90;100935.03;10279183;28;20101;-81
2022/03/10 06:39:23;;;;;;;24.70;14.95;;;;;;;-2.65;56.65;100934.34;10278674;28;20050;-81
2022/03/10 06:44:25;;;;;;;24.67;15.98;;;;;;;-2.56;56.44;100931.88;10278522;28;20086;-81
2022/03/10 06:49:26;;;;;;;24.35;16.05;;;;;;;-2.58;56.33;100932.69;10279073;28;20054;-81
2022/03/10 06:54:28;;;;;;;27.95;17.02;;;;;;;-2.48;56.32;100940.50;10276660;28;20047;-81
2022/03/10 06:59:30;;;;;;;24.92;16.08;;;;;;;-2.49;56.33;100938.75;10292376;28;20134;-81
2022/03/10 07:04:33;;;;;;;30.25;17.80;;;;;;;-2.29;56.01;100931.25;10276717;28;20236;-82
2022/03/10 07:09:34;;;;;;;26.05;16.35;;;;;;;-2.25;55.98;100933.88;10275462;28;20094;-81
2022/03/10 07:14:36;;;;;;;32.10;18.88;;;;;;;-2.06;55.70;100933.13;10275754;28;20074;-81
2022/03/10 07:19:38;;;;;;;28.48;18.90;;;;;;;-1.92;55.57;100942.63;10277431;28;20137;-81
2022/03/10 07:24:40;;;;;;;33.78;19.58;;;;;;;-1.79;55.40;100940.16;10276225;28;20465;-82
2022/03/10 07:29:42;;;;;;;28.38;17.85;;;;;;;-1.60;55.21;100948.81;10275275;28;20090;-81
2022/03/10 07:34:47;;;;;;;24.08;16.40;;;;;;;-1.34;55.22;100945.53;10269362;28;20162;-81
2022/03/10 07:39:49;;;;;;;24.52;16.67;;;;;;;-1.05;54.90;100944.78;10271575;28;20058;-81
2022/03/10 07:44:50;;;;;;;26.50;16.98;;;;;;;-0.80;54.38;100944.84;10275112;28;20149;-82
2022/03/10 07:49:52;;;;;;;28.85;17.70;;;;;;;-0.66;54.32;100948.31;10266167;28;20055;-81
2022/03/10 07:54:54;;;;;;;27.63;16.90;;;;;;;-0.51;54.58;100943.19;10272392;28;20149;-81
2022/03/10 07:59:55;;;;;;;26.17;16.73;;;;;;;0.04;53.98;100936.31;10269981;28;20134;-81
2022/03/10 08:04:57;;;;;;;26.13;17.15;;;;;;;0.55;52.96;100935.34;10271356;28;20162;-81
2022/03/10 08:10:06;;;;;;;28.00;17.35;;;;;;;1.30;51.70;100926.41;10271066;28;20154;-81
2022/03/10 08:15:08;;;;;;;31.00;16.85;;;;;;;1.96;50.57;100930.19;10272382;28;20142;-82
2022/03/10 08:20:10;;;;;;;25.27;15.88;;;;;;;2.33;48.79;100921.25;10271673;28;20588;-81
2022/03/10 08:25:12;;;;;;;24.83;15.73;;;;;;;2.74;47.62;100913.88;10271344;28;20139;-81
2022/03/10 08:30:15;;;;;;;25.60;16.08;;;;;;;3.01;47.04;100905.75;10272629;28;20129;-81
2022/03/10 08:35:17;;;;;;;26.90;16.02;;;;;;;3.02;46.57;100912.66;10273118;28;20079;-81
2022/03/10 08:40:19;;;;;;;22.77;14.95;;;;;;;3.35;45.39;100902.69;10270930;28;20145;-82
2022/03/10 08:45:25;;;;;;;22.02;15.30;;;;;;;3.65;45.03;100907.38;10270769;28;20058;-81
2022/03/10 08:50:27;;;;;;;21.27;14.90;;;;;;;3.92;44.06;100895.75;10270973;28;20145;-81
2022/03/10 08:55:28;;;;;;;25.83;14.90;;;;;;;4.09;43.66;100904.09;10269444;28;20098;-81
2022/03/10 09:00:30;;;;;;;25.33;16.20;;;;;;;4.55;42.88;100900.59;10271202;28;20142;-82
2022/03/10 09:05:34;;;;;;;24.48;16.10;;;;;;;4.91;42.72;100887.75;10272880;28;20054;-81
2022/03/10 09:10:36;;;;;;;24.50;15.77;;;;;;;5.17;42.23;100880.25;10271043;28;20325;-82
2022/03/10 09:15:38;;;;;;;27.27;15.70;;;;;;;5.50;41.71;100874.28;10265908;28;20461;-82
2022/03/10 09:20:40;;;;;;;23.17;15.88;;;;;;;5.88;41.14;100875.94;10272950;28;20070;-82
2022/03/10 09:25:42;;;;;;;23.17;15.48;;;;;;;5.99;40.30;100869.56;10272309;28;20120;-82
2022/03/10 09:30:44;;;;;;;24.98;15.73;;;;;;;6.20;39.67;100853.44;10269435;28;20082;-81
2022/03/10 09:35:46;;;;;;;25.70;15.73;;;;;;;6.21;39.80;100855.13;10267058;28;20432;-82
2022/03/10 09:40:54;;;;;;;23.80;14.85;;;;;;;6.27;39.50;100854.97;10265509;28;20043;-81
2022/03/10 09:45:56;;;;;;;23.13;14.90;;;;;;;6.65;39.33;100855.66;10266996;28;20513;-81
2022/03/10 09:50:58;;;;;;;25.17;14.93;;;;;;;7.00;38.88;100843.28;10265528;28;20408;-82
2022/03/10 09:56:02;;;;;;;23.42;14.32;;;;;;;7.11;38.40;100829.97;10267578;28;20524;-81
2022/03/10 10:01:08;;;;;;;22.27;14.98;;;;;;;7.26;38.07;100829.50;10271031;28;20058;-81
2022/03/10 10:06:10;;;;;;;26.85;15.73;;;;;;;7.39;38.31;100824.72;10273050;28;20492;-82
2022/03/10 10:11:15;;;;;;;26.88;14.25;;;;;;;7.47;37.56;100823.56;10275011;28;20112;-82
2022/03/10 10:16:18;;;;;;;29.48;14.75;;;;;;;7.25;37.57;100825.16;10265947;28;20082;-82
2022/03/10 10:21:21;;;;;;;19.98;14.70;;;;;;;7.57;37.54;100822.38;10265106;28;20062;-81
2022/03/10 10:26:26;;;;;;;21.45;14.18;;;;;;;7.86;37.01;100811.81;10265628;28;20047;-84
2022/03/10 10:31:28;;;;;;;28.48;14.90;;;;;;;8.22;36.87;100814.06;10276446;28;20477;-83
2022/03/10 10:36:32;;;;;;;26.85;14.95;;;;;;;8.54;36.58;100808.53;10279222;28;20058;-83
2022/03/10 10:41:34;;;;;;;21.13;13.73;;;;;;;8.70;36.06;100804.41;10278383;28;20090;-84
2022/03/10 10:46:43;;;;;;;24.58;14.32;;;;;;;8.95;35.79;100807.78;10277600;28;20103;-83
2022/03/10 10:51:48;;;;;;;23.38;15.02;;;;;;;8.99;35.78;100806.75;10277635;28;20481;-84
2022/03/10 10:56:55;;;;;;;23.40;14.57;;;;;;;9.31;35.12;100795.88;10277075;28;20158;-84
2022/03/10 11:02:10;;;;;;;21.00;13.02;;;;;;;9.35;34.04;100787.00;10276904;28;20501;-83
2022/03/10 11:07:14;;;;;;;19.38;13.70;;;;;;;9.53;35.03;100773.19;10278131;28;20047;-83
2022/03/10 11:12:17;;;;;;;18.90;13.38;;;;;;;9.66;34.97;100778.78;10272361;28;20058;-82
2022/03/10 11:17:22;;;;;;;21.13;14.20;;;;;;;9.82;34.59;100766.75;10270344;28;20094;-83
2022/03/10 11:22:43;;;;;;;20.77;13.40;;;;;;;9.87;33.92;100756.09;10274922;28;20134;-83
2022/03/10 11:27:51;;;;;;;20.55;13.13;;;;;;;10.05;33.40;100744.84;10273388;28;20408;-83
2022/03/10 11:33:26;;;;;;;18.70;12.73;;;;;;;10.15;33.50;100740.91;10275006;28;20078;-83
2022/03/10 11:38:50;;;;;;;23.55;12.73;;;;;;;10.34;32.74;100723.44;10273123;28;20104;-83
2022/03/10 11:44:00;;;;;;;19.65;11.93;;;;;;;10.75;33.38;100718.88;10272675;28;20055;-83
2022/03/10 11:49:15;;;;;;;17.33;10.27;;;;;;;11.06;32.31;100717.34;10275005;28;20081;-83
2022/03/10 11:54:37;;;;;;;16.98;10.82;;;;;;;11.31;31.88;100709.13;10274138;28;20051;-83
2022/03/10 11:59:38;;;;;;;18.75;11.07;;;;;;;11.43;32.41;100703.28;10289443;28;20069;-83
2022/03/10 12:04:41;;;;;;;17.08;10.27;;;;;;;11.75;31.98;100699.84;10275376;28;20057;-83
2022/03/10 12:10:01;;;;;;;15.27;9.52;;;;;;;11.82;30.30;100689.88;10275665;28;20051;-83
2022/03/10 12:15:29;;;;;;;14.43;9.53;;;;;;;11.95;29.95;100670.78;10275112;28;20097;-82
2022/03/10 12:20:41;;;;;;;17.23;9.10;;;;;;;12.34;30.81;100661.69;10270580;28;20062;-83
2022/03/10 12:25:46;;;;;;;10.48;7.32;;;;;;;12.66;29.75;100647.66;10273171;28;20060;-83
2022/03/10 12:30:49;;;;;;;9.35;6.90;;;;;;;12.84;29.18;100650.03;10274249;28;20148;-83
2022/03/10 12:35:55;;;;;;;9.95;6.90;;;;;;;12.96;28.09;100641.44;10274054;28;20150;-83
2022/03/10 12:40:58;;;;;;;7.50;5.20;;;;;;;13.17;28.75;100628.84;10272620;28;20141;-83
2022/03/10 12:46:01;;;;;;;9.05;5.15;;;;;;;13.32;27.88;100624.47;10272981;28;20051;-83
2022/03/10 12:51:03;;;;;;;9.65;4.38;;;;;;;13.47;27.68;100611.28;10272254;28;20085;-83
2022/03/10 12:56:40;;;;;;;7.25;4.07;;;;;;;13.68;26.01;100602.06;10272125;28;20146;-83
2022/03/10 13:01:42;;;;;;;5.97;4.18;;;;;;;13.98;26.61;100593.22;10272156;28;21005;-83
2022/03/10 13:06:44;;;;;;;6.75;3.70;;;;;;;14.06;26.32;100583.91;10272982;28;20062;-83
2022/03/10 13:11:46;;;;;;;5.03;3.40;;;;;;;13.75;26.37;100581.50;10271290;28;20051;-83
2022/03/10 13:16:49;;;;;;;6.00;4.20;;;;;;;13.98;25.69;100575.66;10273244;28;20138;-83
2022/03/10 13:22:00;;;;;;;9.80;4.47;;;;;;;14.15;25.21;100577.19;10271163;28;20519;-83
2022/03/10 13:27:05;;;;;;;6.50;4.45;;;;;;;14.14;24.59;100571.13;10272811;28;20463;-83
2022/03/10 13:32:08;;;;;;;6.43;4.07;;;;;;;14.17;25.42;100564.78;10269548;28;20523;-83
2022/03/10 13:37:11;;;;;;;7.95;5.22;;;;;;;14.23;24.71;100556.50;10271874;28;20423;-82
2022/03/10 13:42:33;;;;;;;8.52;5.45;;;;;;;14.35;23.79;100553.91;10269450;28;20391;-81
2022/03/10 13:47:54;;;;;;;9.90;5.18;;;;;;;14.48;24.49;100544.28;10267802;28;20137;-82
2022/03/10 13:52:59;;;;;;;9.00;5.80;;;;;;;14.58;24.04;100542.75;10267119;28;20138;-81
2022/03/10 13:58:04;;;;;;;8.32;5.25;;;;;;;14.48;25.14;100536.38;10265983;28;20576;-82
2022/03/10 14:03:12;;;;;;;11.57;5.78;;;;;;;14.21;24.62;100539.97;10270410;28;20051;-81
2022/03/10 14:08:25;;;;;;;8.35;5.30;;;;;;;14.19;24.14;100526.06;10275788;28;20401;-82
2022/03/10 14:13:48;;;;;;;10.23;5.68;;;;;;;14.06;24.89;100520.78;10277195;28;20086;-81
2022/03/10 14:18:50;;;;;;;12.23;5.00;;;;;;;14.02;24.79;100521.06;10277649;28;20079;-83
2022/03/10 14:24:01;;;;;;;7.13;5.00;;;;;;;14.16;24.92;100516.63;10279207;28;20129;-83
2022/03/10 14:29:03;;;;;;;8.27;5.65;;;;;;;14.26;24.25;100515.06;10277677;28;20105;-84
2022/03/10 14:34:05;;;;;;;10.02;5.68;;;;;;;14.26;23.94;100504.53;10278571;28;20065;-83
2022/03/10 14:39:07;;;;;;;9.75;5.63;;;;;;;14.39;23.68;100492.25;10278534;28;20082;-83
2022/03/10 14:44:10;;;;;;;11.45;5.50;;;;;;;14.46;23.27;100487.41;10277798;28;20089;-83
2022/03/10 14:49:14;;;;;;;7.75;5.20;;;;;;;14.38;23.70;100487.94;10279109;28;20138;-84
2022/03/10 14:54:15;;;;;;;9.75;5.20;;;;;;;13.99;23.94;100481.81;10278598;28;20138;-83
2022/03/10 14:59:17;;;;;;;8.88;4.95;;;;;;;14.00;24.16;100467.72;10278942;28;20077;-83
2022/03/10 15:04:20;;;;;;;8.63;4.70;;;;;;;14.04;23.38;100464.81;10278038;28;20150;-83
2022/03/10 15:09:21;;;;;;;8.55;4.70;;;;;;;14.09;22.96;100453.97;10275756;28;20106;-83
2022/03/10 15:14:23;;;;;;;8.00;4.72;;;;;;;14.14;22.92;100452.75;10275700;28;20137;-83
2022/03/10 15:19:26;;;;;;;6.75;4.65;;;;;;;14.16;22.95;100445.59;10277963;28;20456;-83
2022/03/10 15:24:28;;;;;;;6.72;4.95;;;;;;;14.12;23.12;100444.09;10276320;28;20062;-84
2022/03/10 15:29:33;;;;;;;8.85;4.82;;;;;;;14.14;23.48;100439.59;10275486;28;20113;-83
2022/03/10 15:34:36;;;;;;;6.97;4.65;;;;;;;14.04;22.28;100429.78;10276997;28;20460;-83
2022/03/10 15:39:38;;;;;;;8.25;4.95;;;;;;;13.99;22.49;100422.19;10271249;28;20516;-84
2022/03/10 15:44:40;;;;;;;8.48;5.43;;;;;;;13.95;22.73;100425.97;10270135;28;20061;-84
2022/03/10 15:49:41;;;;;;;8.40;5.95;;;;;;;13.95;23.29;100418.06;10273683;28;20477;-83
2022/03/10 15:54:43;;;;;;;10.82;6.00;;;;;;;13.93;23.32;100421.72;10270875;28;20050;-84
2022/03/10 15:59:45;;;;;;;10.38;6.03;;;;;;;13.86;23.47;100417.84;10273820;28;20057;-84
2022/03/10 16:04:50;;;;;;;11.18;6.80;;;;;;;13.64;24.44;100421.84;10274831;28;20125;-83
2022/03/10 16:09:53;;;;;;;10.77;7.15;;;;;;;13.47;24.30;100416.00;10273534;28;20141;-83
2022/03/10 16:14:55;;;;;;;14.30;7.00;;;;;;;13.18;25.35;100416.97;10274102;28;20508;-83
2022/03/10 16:19:57;;;;;;;12.88;7.30;;;;;;;12.96;25.93;100422.72;10289598;28;20073;-83
2022/03/10 16:24:59;;;;;;;11.52;6.97;;;;;;;12.69;25.86;100421.75;10272322;28;20429;-83
2022/03/10 16:30:01;;;;;;;9.70;6.13;;;;;;;12.47;26.81;100419.59;10274225;28;20157;-83
2022/03/10 16:35:04;;;;;;;8.85;6.13;;;;;;;12.19;27.18;100427.38;10273654;28;20082;-83
2022/03/10 16:40:06;;;;;;;11.43;6.15;;;;;;;11.95;27.34;100434.88;10272993;28;20074;-83
2022/03/10 16:45:08;;;;;;;9.27;6.10;;;;;;;11.82;27.27;100441.75;10274258;28;20054;-83
2022/03/10 16:50:10;;;;;;;14.23;6.40;;;;;;;11.67;27.74;100444.38;10273330;28;20158;-82
2022/03/10 16:55:12;;;;;;;10.73;6.60;;;;;;;11.58;27.46;100439.66;10272785;28;20129;-82
2022/03/10 17:00:14;;;;;;;9.95;6.30;;;;;;;11.26;28.36;100438.81;10272435;28;20102;-83
2022/03/10 17:05:16;;;;;;;8.68;5.82;;;;;;;11.01;28.48;100444.47;10276585;28;20085;-82
2022/03/10 17:10:19;;;;;;;8.75;6.20;;;;;;;10.86;28.96;100440.09;10272250;28;20137;-83
2022/03/10 17:15:21;;;;;;;9.85;6.38;;;;;;;10.57;29.37;100442.50;10271782;28;20054;-82
2022/03/10 17:20:23;;;;;;;10.80;7.00;;;;;;;10.28;30.40;100437.00;10272328;28;20074;-82
2022/03/10 17:25:24;;;;;;;11.52;6.97;;;;;;;9.98;30.86;100438.53;10270800;28;20150;-82
2022/03/10 17:30:28;;;;;;;13.88;6.97;;;;;;;9.76;31.02;100445.72;10273276;28;20933;-83
2022/03/10 17:35:29;;;;;;;10.35;7.32;;;;;;;9.54;31.18;100442.41;10269828;28;20161;-83
2022/03/10 17:40:31;;;;;;;13.32;7.25;;;;;;;9.38;31.92;100444.88;10269521;28;20054;-82
2022/03/10 17:45:33;;;;;;;9.43;6.72;;;;;;;9.19;32.27;100444.06;10287394;28;20073;-82
2022/03/10 17:50:35;;;;;;;17.88;6.90;;;;;;;9.12;31.62;100445.25;10271327;28;20488;-83
2022/03/10 17:55:42;;;;;;;10.85;6.72;;;;;;;8.98;31.58;100442.41;10269648;28;20058;-83
2022/03/10 18:00:46;;;;;;;9.85;6.50;;;;;;;8.87;32.06;100444.69;10268872;28;20054;-83
2022/03/10 18:05:48;;;;;;;10.30;6.10;;;;;;;8.75;32.49;100450.44;10267323;28;20050;-83
2022/03/10 18:10:52;;;;;;;11.57;6.97;;;;;;;8.67;32.40;100452.50;10268394;28;20057;-83
2022/03/10 18:15:53;;;;;;;12.73;7.32;;;;;;;8.58;32.42;100452.91;10268044;28;20536;-83
2022/03/10 18:20:56;;;;;;;13.10;6.90;;;;;;;8.50;33.14;100448.06;10264983;28;20094;-84
2022/03/10 18:25:58;;;;;;;9.40;6.35;;;;;;;8.34;33.93;100453.97;10268552;28;20154;-83
2022/03/10 18:31:00;;;;;;;9.88;6.47;;;;;;;8.16;34.06;100452.13;10269719;28;20521;-84
2022/03/10 18:36:02;;;;;;;12.77;6.90;;;;;;;8.04;33.72;100456.91;10267525;28;20855;-84
2022/03/10 18:41:05;;;;;;;11.98;6.65;;;;;;;7.89;33.76;100451.47;10268861;28;20511;-82
2022/03/10 18:46:10;;;;;;;11.70;7.07;;;;;;;7.75;34.15;100452.00;10269047;28;20058;-83
2022/03/10 18:51:12;;;;;;;13.75;8.07;;;;;;;7.60;34.49;100439.63;10270555;28;20050;-83
2022/03/10 18:56:27;;;;;;;11.90;6.95;;;;;;;7.42;34.84;100437.75;10275633;28;20054;-82
2022/03/10 19:01:29;;;;;;;13.18;7.82;;;;;;;7.32;34.61;100431.19;10276397;28;20169;-82
2022/03/10 19:06:31;;;;;;;14.68;7.85;;;;;;;7.17;35.09;100431.78;10275661;28;20043;-82
2022/03/10 19:11:33;;;;;;;14.63;8.10;;;;;;;6.98;35.91;100433.34;10276986;28;20062;-82
2022/03/10 19:16:35;;;;;;;13.82;9.77;;;;;;;6.88;36.01;100432.00;10274645;28;20145;-82
2022/03/10 19:21:37;;;;;;;16.70;9.77;;;;;;;6.73;36.34;100437.78;10273217;28;20062;-82
2022/03/10 19:26:39;;;;;;;14.75;9.35;;;;;;;6.54;36.91;100434.13;10274583;28;20615;-82
2022/03/10 19:31:41;;;;;;;20.15;9.73;;;;;;;6.36;37.24;100433.03;10275180;28;20171;-83
2022/03/10 19:36:43;;;;;;;15.65;9.40;;;;;;;6.32;37.18;100421.91;10271668;28;20130;-83
2022/03/10 19:41:45;;;;;;;13.93;9.00;;;;;;;6.20;37.54;100424.88;10272091;28;20145;-83
2022/03/10 19:46:47;;;;;;;21.13;9.85;;;;;;;6.07;38.01;100420.13;10273684;28;20137;-83
2022/03/10 19:51:53;;;;;;;12.95;8.88;;;;;;;5.94;38.51;100430.09;10274465;28;20090;-83
2022/03/10 19:56:56;;;;;;;16.55;10.50;;;;;;;5.90;38.21;100436.28;10275096;28;20054;-83
2022/03/10 20:01:58;;;;;;;16.70;10.32;;;;;;;5.83;38.41;100441.72;10275459;28;20134;-83
2022/03/10 20:07:00;;;;;;;15.45;9.57;;;;;;;5.82;39.00;100429.66;10273196;28;20078;-82
2022/03/10 20:12:03;;;;;;;18.00;11.05;;;;;;;5.72;38.95;100436.88;10271360;28;20065;-83
2022/03/10 20:17:07;;;;;;;15.70;10.05;;;;;;;5.63;39.11;100442.38;10274099;28;20512;-83
2022/03/10 20:22:09;;;;;;;19.02;10.55;;;;;;;5.59;39.19;100435.56;10274724;28;20094;-82
2022/03/10 20:27:11;;;;;;;18.17;10.27;;;;;;;5.46;39.07;100442.88;10273386;28;20057;-83
2022/03/10 20:32:14;;;;;;;15.00;9.68;;;;;;;5.32;39.59;100445.06;10275168;28;20110;-83
2022/03/10 20:37:17;;;;;;;16.45;9.88;;;;;;;5.25;39.80;100438.34;10272919;28;20071;-83
2022/03/10 20:42:19;;;;;;;15.20;10.18;;;;;;;5.18;39.83;100442.03;10269204;28;20148;-83
2022/03/10 20:47:21;;;;;;;18.42;11.15;;;;;;;5.10;39.81;100438.81;10271377;28;20057;-83
2022/03/10 20:52:23;;;;;;;22.83;12.07;;;;;;;4.98;39.88;100440.91;10273642;28;20086;-83
2022/03/10 20:57:25;;;;;;;20.92;10.77;;;;;;;4.95;39.93;100439.25;10272789;28;20054;-83
2022/03/10 21:02:27;;;;;;;14.95;9.90;;;;;;;4.78;40.52;100432.84;10272465;28;20847;-83
2022/03/10 21:07:30;;;;;;;19.52;11.20;;;;;;;4.68;40.51;100437.41;10269986;28;20050;-83
2022/03/10 21:12:32;;;;;;;18.52;10.40;;;;;;;4.49;41.17;100431.06;10271980;28;20551;-83
2022/03/10 21:17:34;;;;;;;20.60;10.82;;;;;;;4.41;41.44;100430.41;10266422;28;20051;-83
2022/03/10 21:22:38;;;;;;;17.05;11.40;;;;;;;4.31;41.11;100432.38;10268388;28;20056;-83
2022/03/10 21:27:40;;;;;;;20.52;11.65;;;;;;;4.06;41.53;100425.31;10270101;28;20101;-83
2022/03/10 21:32:42;;;;;;;19.45;11.95;;;;;;;3.81;41.79;100428.47;10268252;28;20145;-83
2022/03/10 21:37:44;;;;;;;23.10;12.10;;;;;;;3.61;42.31;100425.53;10265796;28;20126;-82
2022/03/10 21:42:47;;;;;;;17.75;12.07;;;;;;;3.52;42.47;100433.47;10265695;28;20093;-83
2022/03/10 21:47:49;;;;;;;19.98;11.57;;;;;;;3.43;42.63;100423.38;10280277;28;20051;-83
2022/03/10 21:52:51;;;;;;;19.10;11.43;;;;;;;3.28;43.56;100420.25;10270692;28;20109;-83
2022/03/10 21:57:55;;;;;;;19.15;12.63;;;;;;;3.24;43.80;100416.03;10268145;28;20057;-82
2022/03/10 22:02:56;;;;;;;20.00;12.02;;;;;;;3.15;44.46;100416.25;10267096;28;20086;-83
2022/03/10 22:07:59;;;;;;;22.10;12.07;;;;;;;3.07;44.58;100409.50;10270411;28;20047;-82
2022/03/10 22:13:01;;;;;;;21.05;12.57;;;;;;;3.06;44.63;100412.13;10267965;28;20054;-82
2022/03/10 22:18:05;;;;;;;19.60;12.57;;;;;;;3.03;45.04;100419.94;10265526;28;20500;-83
2022/03/10 22:23:08;;;;;;;18.73;12.10;;;;;;;2.99;45.12;100419.16;10271117;28;20984;-83
2022/03/10 22:28:09;;;;;;;19.58;13.82;;;;;;;2.97;45.04;100415.75;10276258;28;20109;-82
2022/03/10 22:33:11;;;;;;;23.75;14.13;;;;;;;2.87;45.09;100418.56;10269699;28;20133;-82
2022/03/10 22:38:13;;;;;;;23.73;14.90;;;;;;;2.81;45.37;100410.94;10271728;28;20062;-82
2022/03/10 22:43:15;;;;;;;22.10;14.98;;;;;;;2.71;45.73;100407.72;10276567;28;20146;-82
2022/03/10 22:48:17;;;;;;;23.58;13.70;;;;;;;2.72;45.59;100406.84;10272566;28;20378;-82
2022/03/10 22:58:39;;;;;;;22.70;14.65;;;;;;;2.73;45.82;100405.09;10276751;28;20586;-83
2022/03/10 23:03:41;;;;;;;21.92;12.70;;;;;;;2.80;45.28;100396.34;10272558;28;20086;-82
2022/03/10 23:08:43;;;;;;;23.40;13.45;;;;;;;2.84;45.40;100403.16;10274713;28;20047;-82